Time;durP1;ratioP1;P1;durP2;ratioP2;P2;SDS_P1;SDS_P2;PMS_P1;PMS_P2;Temp;Humidity;BMP_temperature;BMP_pressure;BME280_temperature;BME280_humidity;BME280_pressure;Samples;Min_cycle;Max_cycle;Signal;HPM_P1;HPM_P2
2023/04/03 00:00:44;;;;;;;2.80;0.75;;;;;;;;;;6118769;23;20495;-79
2023/04/03 00:03:10;;;;;;;6.50;0.80;;;;;;;;;;6119984;23;20013;-79
2023/04/03 00:05:35;;;;;;;4.07;0.70;;;;;;;;;;6118937;23;20013;-79
2023/04/03 00:08:01;;;;;;;3.95;0.70;;;;;;;;;;6094948;23;20028;-79
2023/04/03 00:10:27;;;;;;;2.63;0.82;;;;;;;;;;6144586;23;20117;-79
2023/04/03 00:12:53;;;;;;;3.30;0.90;;;;;;;;;;6095130;23;20020;-79
2023/04/03 00:15:18;;;;;;;2.83;0.90;;;;;;;;;;6119484;23;20017;-79
2023/04/03 00:17:44;;;;;;;2.15;0.68;;;;;;;;;;6094823;23;20017;-79
2023/04/03 00:20:10;;;;;;;2.45;0.77;;;;;;;;;;6146573;23;20017;-79
2023/04/03 00:22:35;;;;;;;2.45;0.68;;;;;;;;;;6144877;23;20018;-79
2023/04/03 00:25:00;;;;;;;5.20;1.10;;;;;;;;;;6120664;23;20025;-79
2023/04/03 00:27:26;;;;;;;5.10;0.65;;;;;;;;;;6119082;23;20745;-79
2023/04/03 00:29:51;;;;;;;4.00;0.88;;;;;;;;;;6145732;23;20457;-79
2023/04/03 00:32:17;;;;;;;2.92;0.80;;;;;;;;;;6118004;23;20013;-79
2023/04/03 00:34:42;;;;;;;4.95;0.93;;;;;;;;;;6119855;23;20399;-79
2023/04/03 00:37:08;;;;;;;5.22;0.90;;;;;;;;;;6095454;23;20013;-79
2023/04/03 00:39:33;;;;;;;3.53;0.80;;;;;;;;;;6095084;23;20462;-80
2023/04/03 00:41:58;;;;;;;4.22;0.80;;;;;;;;;;6144692;23;20081;-79
2023/04/03 00:44:33;;;;;;;2.67;0.90;;;;;;;;;;6145647;23;20048;-79
2023/04/03 00:46:59;;;;;;;3.72;1.15;;;;;;;;;;6117980;23;20024;-79
2023/04/03 00:49:25;;;;;;;2.97;0.88;;;;;;;;;;6095041;23;20451;-79
2023/04/03 00:51:50;;;;;;;2.30;0.73;;;;;;;;;;6144673;23;20013;-79
2023/04/03 00:54:16;;;;;;;2.60;0.80;;;;;;;;;;6146286;23;20048;-79
2023/04/03 00:56:42;;;;;;;4.25;1.00;;;;;;;;;;6119018;23;20388;-79
2023/04/03 00:59:11;;;;;;;5.43;1.05;;;;;;;;;;6145565;23;20013;-79
2023/04/03 01:01:37;;;;;;;2.78;0.93;;;;;;;;;;6119566;23;20009;-79
2023/04/03 01:04:05;;;;;;;2.15;0.60;;;;;;;;;;6118892;23;20017;-81
2023/04/03 01:06:34;;;;;;;3.78;0.80;;;;;;;;;;6119180;23;20447;-79
2023/04/03 01:09:00;;;;;;;2.80;0.57;;;;;;;;;;6119607;23;20021;-79
2023/04/03 01:11:25;;;;;;;3.45;0.75;;;;;;;;;;6145131;23;20881;-79
2023/04/03 01:13:51;;;;;;;3.10;0.88;;;;;;;;;;6145663;23;20472;-79
2023/04/03 01:16:18;;;;;;;4.70;0.82;;;;;;;;;;6118286;23;20013;-79
2023/04/03 01:18:43;;;;;;;3.10;0.80;;;;;;;;;;6095453;23;20017;-79
2023/04/03 01:21:46;;;;;;;2.42;0.60;;;;;;;;;;6145651;23;20020;-80
2023/04/03 01:24:30;;;;;;;5.72;1.08;;;;;;;;;;6096033;23;20062;-79
2023/04/03 01:26:56;;;;;;;3.65;0.95;;;;;;;;;;6118909;23;20388;-79
2023/04/03 01:29:21;;;;;;;3.05;0.70;;;;;;;;;;6145319;23;20052;-79
2023/04/03 01:31:49;;;;;;;2.00;0.80;;;;;;;;;;6144413;23;20025;-79
2023/04/03 01:34:15;;;;;;;3.22;0.82;;;;;;;;;;6145456;23;20424;-79
2023/04/03 01:36:40;;;;;;;2.30;0.70;;;;;;;;;;6119698;23;20014;-80
2023/04/03 01:39:06;;;;;;;3.13;1.05;;;;;;;;;;6119298;23;20892;-79
2023/04/03 01:41:32;;;;;;;1.83;0.85;;;;;;;;;;6145214;23;20018;-79
2023/04/03 01:43:57;;;;;;;4.25;0.90;;;;;;;;;;6145266;23;20025;-79
2023/04/03 01:46:23;;;;;;;3.45;0.98;;;;;;;;;;6144713;23;20141;-79
2023/04/03 01:48:48;;;;;;;3.20;0.80;;;;;;;;;;6144920;23;20447;-79
2023/04/03 01:51:14;;;;;;;1.73;0.60;;;;;;;;;;6144441;23;20022;-79
2023/04/03 01:53:39;;;;;;;3.28;0.70;;;;;;;;;;6146106;23;20014;-78
2023/04/03 01:56:05;;;;;;;2.75;0.88;;;;;;;;;;6118429;23;20591;-80
2023/04/03 01:58:30;;;;;;;2.20;0.77;;;;;;;;;;6145306;23;20578;-80
2023/04/03 02:00:56;;;;;;;2.60;0.75;;;;;;;;;;6143800;23;20021;-79
2023/04/03 02:03:21;;;;;;;2.58;0.80;;;;;;;;;;6119212;23;20506;-78
2023/04/03 02:05:47;;;;;;;3.08;0.73;;;;;;;;;;6144578;23;20017;-80
2023/04/03 02:08:12;;;;;;;4.00;0.75;;;;;;;;;;6119069;23;20024;-80
2023/04/03 02:10:38;;;;;;;3.58;0.80;;;;;;;;;;6144581;23;20044;-80
2023/04/03 02:13:03;;;;;;;2.03;0.65;;;;;;;;;;6145479;23;20017;-80
2023/04/03 02:15:29;;;;;;;2.90;0.80;;;;;;;;;;6144161;23;20020;-80
2023/04/03 02:17:54;;;;;;;1.90;0.60;;;;;;;;;;6095003;23;20016;-79
2023/04/03 02:20:20;;;;;;;4.85;0.90;;;;;;;;;;6144130;23;20021;-79
2023/04/03 02:22:45;;;;;;;2.47;0.80;;;;;;;;;;6119152;23;20543;-80
2023/04/03 02:25:12;;;;;;;5.32;0.98;;;;;;;;;;6093921;23;20508;-80
2023/04/03 02:27:37;;;;;;;4.32;1.02;;;;;;;;;;6120082;23;20423;-79
2023/04/03 02:30:04;;;;;;;2.80;0.88;;;;;;;;;;6146701;23;20021;-79
2023/04/03 02:32:29;;;;;;;3.17;0.98;;;;;;;;;;6118959;23;20028;-80
2023/04/03 02:34:55;;;;;;;3.42;0.70;;;;;;;;;;6120855;23;20100;-80
2023/04/03 02:37:21;;;;;;;3.50;1.02;;;;;;;;;;6144526;23;20113;-80
2023/04/03 02:39:46;;;;;;;2.80;0.82;;;;;;;;;;6121018;23;20048;-80
2023/04/03 02:42:11;;;;;;;2.40;0.80;;;;;;;;;;6145994;23;20355;-80
2023/04/03 02:44:37;;;;;;;2.65;0.80;;;;;;;;;;6148136;23;20021;-80
2023/04/03 02:47:02;;;;;;;4.30;0.90;;;;;;;;;;6119682;23;20151;-79
2023/04/03 02:49:28;;;;;;;5.00;0.88;;;;;;;;;;6146509;23;20152;-79
2023/04/03 02:51:53;;;;;;;5.20;1.00;;;;;;;;;;6145534;23;20351;-79
2023/04/03 02:54:19;;;;;;;2.83;0.90;;;;;;;;;;6146897;23;20704;-79
2023/04/03 02:56:44;;;;;;;4.25;0.98;;;;;;;;;;6145504;23;20010;-79
2023/04/03 02:59:10;;;;;;;3.08;0.80;;;;;;;;;;6120838;23;20017;-79
2023/04/03 03:01:35;;;;;;;2.10;0.70;;;;;;;;;;6146044;23;20014;-79
2023/04/03 03:04:01;;;;;;;3.55;0.93;;;;;;;;;;6120357;23;20478;-79
2023/04/03 03:06:27;;;;;;;2.28;0.73;;;;;;;;;;6119879;23;20325;-80
2023/04/03 03:08:52;;;;;;;2.58;1.05;;;;;;;;;;6120285;23;20025;-79
2023/04/03 03:11:18;;;;;;;2.88;1.10;;;;;;;;;;6119741;23;20021;-79
2023/04/03 03:13:43;;;;;;;2.47;0.82;;;;;;;;;;6120697;23;20029;-78
2023/04/03 03:16:09;;;;;;;2.78;0.57;;;;;;;;;;6119713;23;20344;-79
2023/04/03 03:18:35;;;;;;;3.33;0.85;;;;;;;;;;6120692;23;20049;-80
2023/04/03 03:21:02;;;;;;;3.20;0.80;;;;;;;;;;6119264;23;20017;-79
2023/04/03 03:23:29;;;;;;;2.08;0.80;;;;;;;;;;6146726;23;20071;-79
2023/04/03 03:25:59;;;;;;;7.18;1.27;;;;;;;;;;6146151;23;20088;-79
2023/04/03 03:28:25;;;;;;;3.95;1.05;;;;;;;;;;6120492;23;20570;-79
2023/04/03 03:30:50;;;;;;;4.07;1.00;;;;;;;;;;6145592;23;20089;-79
2023/04/03 03:33:17;;;;;;;1.92;0.82;;;;;;;;;;6146032;23;20358;-78
2023/04/03 03:35:42;;;;;;;2.63;0.80;;;;;;;;;;6145902;23;20021;-79
2023/04/03 03:38:08;;;;;;;1.40;0.70;;;;;;;;;;6145401;23;20045;-79
2023/04/03 03:40:34;;;;;;;2.13;0.77;;;;;;;;;;6119547;23;20101;-79
2023/04/03 03:42:59;;;;;;;4.93;1.00;;;;;;;;;;6120275;23;20025;-80
2023/04/03 03:45:25;;;;;;;2.05;0.80;;;;;;;;;;6144909;23;20418;-79
2023/04/03 03:47:50;;;;;;;3.67;1.05;;;;;;;;;;6146147;23;20013;-79
2023/04/03 03:50:15;;;;;;;3.95;0.80;;;;;;;;;;6094829;23;20478;-79
2023/04/03 03:52:41;;;;;;;2.28;0.80;;;;;;;;;;6118447;23;20013;-80
2023/04/03 03:55:07;;;;;;;4.38;1.00;;;;;;;;;;6146646;23;20016;-79
2023/04/03 03:57:32;;;;;;;9.68;1.52;;;;;;;;;;6118449;23;20017;-79
2023/04/03 03:59:58;;;;;;;2.85;0.80;;;;;;;;;;6120332;23;20071;-79
2023/04/03 04:02:23;;;;;;;5.53;1.35;;;;;;;;;;6145143;23;20010;-79
2023/04/03 04:04:49;;;;;;;3.08;0.80;;;;;;;;;;6120302;23;20029;-78
2023/04/03 04:07:14;;;;;;;1.38;0.70;;;;;;;;;;6118624;23;20009;-79
2023/04/03 04:09:40;;;;;;;2.08;0.65;;;;;;;;;;6146225;23;20017;-80
2023/04/03 04:12:05;;;;;;;2.53;0.73;;;;;;;;;;6145539;23;20010;-79
2023/04/03 04:14:31;;;;;;;2.00;0.80;;;;;;;;;;6119176;23;20119;-79
2023/04/03 04:16:56;;;;;;;3.38;1.02;;;;;;;;;;6144934;23;20114;-79
2023/04/03 04:19:21;;;;;;;2.42;0.82;;;;;;;;;;6120078;23;20344;-79
2023/04/03 04:21:47;;;;;;;2.42;0.77;;;;;;;;;;6119137;23;20105;-80
2023/04/03 04:24:12;;;;;;;2.60;0.85;;;;;;;;;;6145914;23;20069;-80
2023/04/03 04:26:38;;;;;;;5.80;1.30;;;;;;;;;;6119749;23;20084;-80
2023/04/03 04:29:03;;;;;;;3.90;0.90;;;;;;;;;;6145324;23;20040;-79
2023/04/03 04:31:28;;;;;;;4.20;1.00;;;;;;;;;;6118227;23;20029;-79
2023/04/03 04:33:54;;;;;;;3.63;0.93;;;;;;;;;;6145424;23;20009;-79
2023/04/03 04:36:20;;;;;;;2.08;0.80;;;;;;;;;;6118055;23;20483;-79
2023/04/03 04:38:45;;;;;;;3.80;1.02;;;;;;;;;;6119764;23;20044;-79
2023/04/03 04:41:11;;;;;;;4.32;0.80;;;;;;;;;;6118353;23;20021;-81
2023/04/03 04:43:36;;;;;;;3.10;1.08;;;;;;;;;;6120792;23;20029;-79
2023/04/03 04:46:05;;;;;;;2.22;0.90;;;;;;;;;;6118860;23;20021;-80
2023/04/03 04:48:31;;;;;;;4.50;0.90;;;;;;;;;;6145204;23;20459;-80
2023/04/03 04:50:56;;;;;;;6.70;1.45;;;;;;;;;;6094185;23;20024;-79
2023/04/03 04:53:22;;;;;;;5.63;1.15;;;;;;;;;;6119011;23;20101;-79
2023/04/03 04:55:47;;;;;;;4.03;1.13;;;;;;;;;;6118346;23;20024;-79
2023/04/03 04:58:13;;;;;;;3.17;1.13;;;;;;;;;;6118900;23;20017;-79
2023/04/03 05:00:38;;;;;;;2.65;0.80;;;;;;;;;;6145311;23;20088;-79
2023/04/03 05:03:04;;;;;;;3.10;1.00;;;;;;;;;;6144863;23;20408;-79
2023/04/03 05:05:29;;;;;;;2.95;0.93;;;;;;;;;;6144470;23;20092;-79
2023/04/03 05:07:54;;;;;;;2.50;0.85;;;;;;;;;;6118924;23;20024;-79
2023/04/03 05:10:20;;;;;;;3.78;0.90;;;;;;;;;;6144277;23;20056;-79
2023/04/03 05:12:45;;;;;;;1.67;0.77;;;;;;;;;;6119061;23;20033;-79
2023/04/03 05:15:11;;;;;;;2.95;1.00;;;;;;;;;;6145736;23;20017;-79
2023/04/03 05:17:36;;;;;;;6.20;1.30;;;;;;;;;;6144911;23;20009;-79
2023/04/03 05:20:04;;;;;;;5.72;1.13;;;;;;;;;;6145654;23;20024;-79
2023/04/03 05:22:29;;;;;;;2.95;0.80;;;;;;;;;;6118670;23;20021;-79
2023/04/03 05:24:55;;;;;;;4.65;0.85;;;;;;;;;;6145354;23;20018;-80
2023/04/03 05:27:20;;;;;;;3.10;1.10;;;;;;;;;;6144037;23;20017;-79
2023/04/03 05:29:45;;;;;;;3.65;0.85;;;;;;;;;;6119594;23;20020;-79
2023/04/03 05:32:11;;;;;;;2.95;1.02;;;;;;;;;;6119099;23;20455;-79
2023/04/03 05:34:37;;;;;;;5.05;1.05;;;;;;;;;;6119315;23;20041;-79
2023/04/03 05:37:04;;;;;;;2.83;0.90;;;;;;;;;;6144928;23;20021;-79
2023/04/03 05:39:31;;;;;;;2.75;0.80;;;;;;;;;;6118614;23;20336;-78
2023/04/03 05:41:56;;;;;;;4.18;1.20;;;;;;;;;;6093755;23;20072;-79
2023/04/03 05:44:22;;;;;;;3.05;1.00;;;;;;;;;;6065173;23;20037;-78
2023/04/03 05:46:47;;;;;;;4.40;0.85;;;;;;;;;;6114931;23;20018;-78
2023/04/03 05:49:13;;;;;;;4.05;0.90;;;;;;;;;;6089035;23;20076;-78
2023/04/03 05:51:38;;;;;;;5.18;0.73;;;;;;;;;;6066480;23;20348;-78
2023/04/03 05:54:25;;;;;;;2.67;0.68;;;;;;;;;;6090367;23;20014;-79
2023/04/03 05:56:51;;;;;;;2.67;0.98;;;;;;;;;;6089281;23;20081;-78
2023/04/03 05:59:17;;;;;;;2.90;0.98;;;;;;;;;;6065266;23;20392;-78
2023/04/03 06:01:43;;;;;;;1.75;0.70;;;;;;;;;;6090255;23;20014;-80
2023/04/03 06:04:10;;;;;;;5.43;0.80;;;;;;;;;;6092020;23;20021;-80
2023/04/03 06:06:54;;;;;;;2.40;0.70;;;;;;;;;;6066664;23;20021;-79
2023/04/03 06:09:21;;;;;;;2.33;0.68;;;;;;;;;;6091036;23;20117;-80
2023/04/03 06:11:46;;;;;;;2.30;0.93;;;;;;;;;;6091729;23;20041;-80
2023/04/03 06:14:12;;;;;;;2.17;0.70;;;;;;;;;;6117147;23;20037;-80
2023/04/03 06:16:38;;;;;;;1.95;0.85;;;;;;;;;;6091497;23;20014;-79
2023/04/03 06:19:05;;;;;;;2.60;0.80;;;;;;;;;;6091863;23;20025;-78
2023/04/03 06:21:31;;;;;;;3.15;1.10;;;;;;;;;;6117190;23;20337;-80
2023/04/03 06:23:56;;;;;;;5.63;0.80;;;;;;;;;;6091321;23;20197;-78
2023/04/03 06:26:22;;;;;;;3.63;0.75;;;;;;;;;;6091233;23;20021;-78
2023/04/03 06:28:47;;;;;;;4.93;1.88;;;;;;;;;;6090991;23;20069;-78
2023/04/03 06:31:13;;;;;;;2.70;0.88;;;;;;;;;;6091298;23;20022;-78
2023/04/03 06:33:38;;;;;;;3.55;1.15;;;;;;;;;;6116734;23;20022;-77
2023/04/03 06:36:05;;;;;;;2.33;0.70;;;;;;;;;;6090915;23;20352;-78
2023/04/03 06:38:31;;;;;;;3.83;1.05;;;;;;;;;;6117106;23;20014;-78
2023/04/03 06:40:56;;;;;;;2.67;0.70;;;;;;;;;;6090841;23;20165;-78
2023/04/03 06:43:22;;;;;;;2.97;0.85;;;;;;;;;;6134160;23;20056;-78
2023/04/03 06:45:48;;;;;;;2.35;0.60;;;;;;;;;;6095602;23;20116;-78
2023/04/03 06:48:13;;;;;;;4.32;1.20;;;;;;;;;;6120193;23;20022;-78
2023/04/03 06:50:39;;;;;;;3.85;0.80;;;;;;;;;;6146946;23;20590;-78
2023/04/03 06:53:05;;;;;;;4.05;0.70;;;;;;;;;;6146453;23;20010;-78
2023/04/03 06:55:31;;;;;;;2.47;0.68;;;;;;;;;;6146639;23;20120;-77
2023/04/03 06:57:57;;;;;;;3.00;0.70;;;;;;;;;;6119909;23;20494;-78
2023/04/03 07:00:22;;;;;;;5.18;1.02;;;;;;;;;;6145899;23;20048;-78
2023/04/03 07:02:48;;;;;;;3.30;0.93;;;;;;;;;;6146441;23;20021;-79
2023/04/03 07:05:13;;;;;;;4.18;1.00;;;;;;;;;;6145098;23;20028;-78
2023/04/03 07:07:39;;;;;;;3.40;0.80;;;;;;;;;;6120728;23;20013;-78
2023/04/03 07:10:06;;;;;;;8.82;1.00;;;;;;;;;;6120163;23;20017;-78
2023/04/03 07:12:31;;;;;;;1.92;0.60;;;;;;;;;;6145375;23;20025;-77
2023/04/03 07:14:57;;;;;;;4.13;0.75;;;;;;;;;;6120350;23;20609;-80
2023/04/03 07:17:22;;;;;;;4.63;0.80;;;;;;;;;;6119066;23;20018;-78
2023/04/03 07:19:48;;;;;;;3.67;0.88;;;;;;;;;;6146653;23;20073;-79
2023/04/03 07:22:13;;;;;;;4.70;0.88;;;;;;;;;;6145400;23;20044;-80
2023/04/03 07:24:39;;;;;;;4.20;1.00;;;;;;;;;;6096771;23;20501;-80
2023/04/03 07:27:05;;;;;;;2.40;0.60;;;;;;;;;;6119641;23;20354;-80
2023/04/03 07:29:30;;;;;;;2.47;0.65;;;;;;;;;;6143736;23;20017;-79
2023/04/03 07:31:56;;;;;;;3.60;0.50;;;;;;;;;;6095373;23;20037;-80
2023/04/03 07:34:22;;;;;;;2.92;0.85;;;;;;;;;;6120046;23;20018;-80
2023/04/03 07:36:47;;;;;;;3.17;0.70;;;;;;;;;;6095088;23;20017;-79
2023/04/03 07:39:13;;;;;;;2.38;0.75;;;;;;;;;;6145588;23;20379;-81
2023/04/03 07:41:38;;;;;;;11.88;4.47;;;;;;;;;;6120793;23;20088;-80
2023/04/03 07:44:05;;;;;;;5.03;1.63;;;;;;;;;;6120983;23;20025;-81
2023/04/03 07:46:31;;;;;;;2.22;0.68;;;;;;;;;;6078887;23;20448;-77
2023/04/03 07:48:56;;;;;;;1.15;0.50;;;;;;;;;;6145441;23;20021;-79
2023/04/03 07:51:22;;;;;;;2.72;0.77;;;;;;;;;;6145397;23;20117;-78
2023/04/03 07:53:48;;;;;;;2.13;0.70;;;;;;;;;;6119058;23;20028;-79
2023/04/03 07:56:14;;;;;;;2.85;0.57;;;;;;;;;;6144973;23;20017;-79
2023/04/03 07:58:39;;;;;;;1.92;0.60;;;;;;;;;;6120298;23;20080;-79
2023/04/03 08:01:06;;;;;;;2.65;0.77;;;;;;;;;;6118877;23;20402;-79
2023/04/03 08:03:31;;;;;;;2.53;0.50;;;;;;;;;;6093461;23;20017;-77
2023/04/03 08:06:03;;;;;;;3.10;1.10;;;;;;;;;;6093297;23;20039;-79
2023/04/03 08:08:29;;;;;;;2.65;0.60;;;;;;;;;;6094120;23;20481;-79
2023/04/03 08:11:00;;;;;;;2.22;0.70;;;;;;;;;;6093687;23;20052;-80
2023/04/03 08:13:25;;;;;;;4.55;0.77;;;;;;;;;;6145300;23;20498;-79
2023/04/03 08:15:52;;;;;;;3.35;1.23;;;;;;;;;;6118129;23;20013;-79
2023/04/03 08:18:21;;;;;;;3.78;1.45;;;;;;;;;;6118427;23;20017;-77
2023/04/03 08:20:47;;;;;;;5.88;1.20;;;;;;;;;;6144771;23;20020;-79
2023/04/03 08:23:12;;;;;;;2.67;0.93;;;;;;;;;;6120123;23;20354;-79
2023/04/03 08:25:41;;;;;;;2.83;0.60;;;;;;;;;;6145614;23;20014;-80
2023/04/03 08:28:07;;;;;;;4.30;0.70;;;;;;;;;;6094520;23;20360;-79
2023/04/03 08:30:33;;;;;;;2.70;0.70;;;;;;;;;;6117549;23;20032;-79
2023/04/03 08:33:01;;;;;;;1.40;0.50;;;;;;;;;;6117577;23;20017;-80
2023/04/03 08:35:28;;;;;;;2.25;0.77;;;;;;;;;;6143907;23;20017;-80
2023/04/03 08:37:53;;;;;;;3.40;0.93;;;;;;;;;;6119106;23;20017;-82
2023/04/03 08:40:19;;;;;;;3.35;0.80;;;;;;;;;;6145094;23;20025;-81
2023/04/03 08:43:04;;;;;;;2.75;0.57;;;;;;;;;;6094719;23;20036;-78
2023/04/03 08:45:45;;;;;;;2.53;0.60;;;;;;;;;;6143612;23;20464;-78
2023/04/03 08:48:12;;;;;;;4.05;0.98;;;;;;;;;;6117119;23;20009;-78
2023/04/03 08:50:44;;;;;;;2.88;0.70;;;;;;;;;;6117332;23;20049;-78
2023/04/03 08:53:15;;;;;;;1.83;0.73;;;;;;;;;;6118957;23;20021;-78
2023/04/03 08:55:46;;;;;;;2.83;0.68;;;;;;;;;;6117824;23;20448;-78
2023/04/03 08:58:33;;;;;;;1.20;0.60;;;;;;;;;;6094749;23;20383;-79
2023/04/03 09:01:34;;;;;;;;;;;;;;;;;;6138326;23;20013;-79
2023/04/03 09:04:01;;;;;;;1.85;0.68;;;;;;;;;;6081154;23;19921;-79
2023/04/03 09:06:32;;;;;;;2.88;0.63;;;;;;;;;;6118431;23;20024;-79
2023/04/03 09:09:10;;;;;;;4.63;1.30;;;;;;;;;;6118503;23;20014;-79
2023/04/03 09:12:09;;;;;;;3.78;0.70;;;;;;;;;;6144185;23;20021;-75
2023/04/03 09:14:49;;;;;;;2.33;0.80;;;;;;;;;;6118830;23;20096;-75
2023/04/03 09:17:31;;;;;;;1.60;0.88;;;;;;;;;;6118083;23;20740;-75
2023/04/03 09:20:06;;;;;;;2.28;0.70;;;;;;;;;;6093393;23;20009;-76
2023/04/03 09:22:33;;;;;;;3.17;0.70;;;;;;;;;;6142921;23;20447;-76
2023/04/03 09:25:10;;;;;;;2.43;0.73;;;;;;;;;;6144943;23;20706;-76
2023/04/03 09:27:37;;;;;;;3.20;0.60;;;;;;;;;;6143530;23;20025;-76
2023/04/03 09:30:03;;;;;;;3.75;0.73;;;;;;;;;;6118570;23;20470;-76
2023/04/03 09:32:30;;;;;;;1.88;0.60;;;;;;;;;;6094191;23;20417;-75
2023/04/03 09:34:59;;;;;;;8.57;1.00;;;;;;;;;;6119121;23;20355;-76
2023/04/03 09:37:41;;;;;;;4.28;0.77;;;;;;;;;;6119834;23;20017;-80
2023/04/03 09:40:28;;;;;;;2.25;0.77;;;;;;;;;;6122802;23;20447;-79
2023/04/03 09:42:56;;;;;;;2.15;0.88;;;;;;;;;;6096938;23;20025;-80
2023/04/03 09:45:31;;;;;;;3.42;0.60;;;;;;;;;;6148049;23;20025;-80
2023/04/03 09:48:16;;;;;;;7.40;0.80;;;;;;;;;;6121947;23;20041;-80
2023/04/03 09:50:52;;;;;;;1.58;0.43;;;;;;;;;;6148023;23;20026;-80
2023/04/03 09:53:40;;;;;;;2.67;0.60;;;;;;;;;;6147195;23;20107;-80
2023/04/03 09:56:20;;;;;;;2.70;0.73;;;;;;;;;;6148503;23;20056;-80
2023/04/03 09:58:50;;;;;;;4.20;0.70;;;;;;;;;;6148276;23;20681;-80
2023/04/03 10:01:32;;;;;;;1.60;0.55;;;;;;;;;;6096959;23;20014;-80
2023/04/03 10:04:07;;;;;;;1.98;0.50;;;;;;;;;;6122505;23;20092;-80
2023/04/03 10:06:40;;;;;;;1.88;0.65;;;;;;;;;;6148025;23;20122;-80
2023/04/03 10:09:15;;;;;;;2.85;0.98;;;;;;;;;;6120882;23;20010;-81
2023/04/03 10:11:56;;;;;;;2.60;0.95;;;;;;;;;;6121361;23;20489;-80
2023/04/03 10:14:22;;;;;;;1.45;0.60;;;;;;;;;;6121932;23;20562;-81
2023/04/03 10:16:59;;;;;;;4.03;0.90;;;;;;;;;;6121472;23;20014;-81
2023/04/03 10:19:42;;;;;;;2.58;0.80;;;;;;;;;;6149033;23;20073;-81
2023/04/03 10:22:20;;;;;;;3.00;0.60;;;;;;;;;;6098066;23;20448;-81
2023/04/03 10:24:52;;;;;;;3.47;0.73;;;;;;;;;;6148210;23;20071;-81
2023/04/03 10:27:27;;;;;;;2.67;0.80;;;;;;;;;;6147704;23;20447;-81
2023/04/03 10:30:22;;;;;;;3.83;1.35;;;;;;;;;;6148355;23;20025;-81
2023/04/03 10:32:53;;;;;;;4.60;0.65;;;;;;;;;;6147757;23;20071;-81
2023/04/03 10:35:46;;;;;;;1.95;0.60;;;;;;;;;;6122059;23;20020;-80
2023/04/03 10:38:26;;;;;;;1.77;0.50;;;;;;;;;;6147531;23;20013;-82
2023/04/03 10:40:58;;;;;;;2.63;0.80;;;;;;;;;;6119795;23;20439;-81
2023/04/03 10:43:47;;;;;;;1.70;0.60;;;;;;;;;;6147819;23;20087;-81
2023/04/03 10:46:27;;;;;;;2.17;0.60;;;;;;;;;;6147214;23;20013;-81
2023/04/03 10:49:13;;;;;;;2.38;0.70;;;;;;;;;;6146458;23;20515;-81
2023/04/03 10:51:41;;;;;;;2.03;0.40;;;;;;;;;;6146485;23;20338;-81
2023/04/03 10:54:24;;;;;;;6.25;2.08;;;;;;;;;;6121003;23;20021;-80
2023/04/03 10:56:57;;;;;;;6.45;2.45;;;;;;;;;;6120158;23;20527;-81
2023/04/03 10:59:30;;;;;;;1.23;0.40;;;;;;;;;;6119344;23;20017;-81
2023/04/03 11:02:07;;;;;;;1.70;0.47;;;;;;;;;;6120456;23;20421;-78
2023/04/03 11:04:37;;;;;;;1.27;0.45;;;;;;;;;;6093679;23;20040;-81
2023/04/03 11:07:04;;;;;;;1.23;0.40;;;;;;;;;;6095534;23;20028;-80
2023/04/03 11:09:33;;;;;;;;;;;;;;;;;;6095373;23;20298;-81
2023/04/03 11:12:06;;;;;;;1.17;0.47;;;;;;;;;;6169074;23;20228;-80
2023/04/03 11:14:36;;;;;;;1.48;0.40;;;;;;;;;;6095898;23;20022;-80
2023/04/03 11:17:22;;;;;;;1.55;0.50;;;;;;;;;;6119467;23;25025;-81
2023/04/03 11:20:15;;;;;;;4.10;1.02;;;;;;;;;;6120321;23;20013;-80
2023/04/03 11:22:49;;;;;;;1.70;0.70;;;;;;;;;;6105301;23;20048;-80
2023/04/03 11:25:23;;;;;;;1.58;0.50;;;;;;;;;;6119660;23;20025;-81
2023/04/03 11:27:57;;;;;;;2.05;0.70;;;;;;;;;;6146085;23;20477;-81
2023/04/03 11:30:51;;;;;;;1.55;0.50;;;;;;;;;;6120014;23;20032;-80
2023/04/03 11:33:35;;;;;;;1.60;0.80;;;;;;;;;;6131928;23;20428;-80
2023/04/03 11:36:09;;;;;;;2.10;0.45;;;;;;;;;;6095365;23;20017;-80
2023/04/03 11:38:39;;;;;;;1.92;0.60;;;;;;;;;;6147113;23;20531;-81
2023/04/03 11:41:06;;;;;;;2.85;1.23;;;;;;;;;;6119167;23;20027;-80
2023/04/03 11:43:33;;;;;;;1.65;0.73;;;;;;;;;;6120261;23;20395;-80
2023/04/03 11:46:03;;;;;;;2.03;0.60;;;;;;;;;;6094401;23;20013;-81
2023/04/03 11:48:31;;;;;;;3.40;0.50;;;;;;;;;;6095530;23;20028;-80
2023/04/03 11:51:12;;;;;;;2.97;1.00;;;;;;;;;;6144803;23;20052;-81
2023/04/03 11:53:39;;;;;;;6.85;2.38;;;;;;;;;;6146560;23;20025;-80
2023/04/03 11:56:30;;;;;;;2.83;0.80;;;;;;;;;;6119127;23;20512;-80
2023/04/03 11:59:11;;;;;;;1.98;0.52;;;;;;;;;;6131167;23;20013;-81
2023/04/03 12:01:47;;;;;;;1.67;0.55;;;;;;;;;;6145941;23;20029;-81
2023/04/03 12:04:15;;;;;;;1.95;0.60;;;;;;;;;;6118987;23;20094;-80
2023/04/03 12:06:40;;;;;;;1.50;0.60;;;;;;;;;;6095713;23;20527;-80
2023/04/03 12:09:44;;;;;;;2.05;0.70;;;;;;;;;;6145237;23;20044;-81
2023/04/03 12:12:30;;;;;;;2.70;1.05;;;;;;;;;;6025751;23;20091;-79
2023/04/03 12:15:12;;;;;;;2.17;0.63;;;;;;;;;;6022540;23;20490;-79
2023/04/03 12:17:38;;;;;;;2.90;0.70;;;;;;;;;;6084913;23;20346;-79
2023/04/03 12:20:42;;;;;;;3.08;0.75;;;;;;;;;;6120211;23;20017;-80
2023/04/03 12:23:23;;;;;;;2.58;0.60;;;;;;;;;;6144867;23;20017;-80
2023/04/03 12:25:51;;;;;;;2.00;1.05;;;;;;;;;;6118654;23;20022;-79
2023/04/03 12:28:16;;;;;;;1.17;0.50;;;;;;;;;;6095661;23;20024;-78
2023/04/03 12:30:42;;;;;;;2.15;0.70;;;;;;;;;;6105836;23;20021;-80
2023/04/03 12:33:07;;;;;;;2.70;0.70;;;;;;;;;;6146043;23;20020;-79
2023/04/03 12:35:43;;;;;;;1.15;0.50;;;;;;;;;;6145105;23;20080;-80
2023/04/03 12:38:21;;;;;;;1.35;0.65;;;;;;;;;;6119051;23;20013;-80
2023/04/03 12:41:01;;;;;;;2.05;0.75;;;;;;;;;;6118504;23;20044;-80
2023/04/03 12:43:47;;;;;;;1.17;0.50;;;;;;;;;;6145100;23;20033;-80
2023/04/03 12:46:18;;;;;;;4.07;1.03;;;;;;;;;;6144085;23;20041;-80
2023/04/03 12:48:55;;;;;;;1.77;0.60;;;;;;;;;;6145102;23;20040;-78
2023/04/03 12:51:24;;;;;;;1.80;0.73;;;;;;;;;;6118793;23;20052;-79
2023/04/03 12:53:52;;;;;;;2.28;0.82;;;;;;;;;;6119008;23;20447;-79
2023/04/03 12:56:29;;;;;;;4.38;0.77;;;;;;;;;;6119022;23;20451;-79
2023/04/03 12:58:58;;;;;;;2.42;0.80;;;;;;;;;;6094159;23;20028;-79
2023/04/03 13:01:25;;;;;;;1.45;0.50;;;;;;;;;;6118257;23;20456;-79
2023/04/03 13:03:55;;;;;;;1.52;0.60;;;;;;;;;;6095445;23;20123;-79
2023/04/03 13:06:23;;;;;;;1.58;0.60;;;;;;;;;;6094407;23;20032;-79
2023/04/03 13:09:00;;;;;;;1.45;0.50;;;;;;;;;;6119942;23;20063;-78
2023/04/03 13:11:27;;;;;;;1.55;0.50;;;;;;;;;;6144418;23;20112;-78
2023/04/03 13:14:16;;;;;;;1.42;0.60;;;;;;;;;;6144889;23;20018;-77
2023/04/03 13:16:42;;;;;;;1.65;0.70;;;;;;;;;;6128376;23;20324;-77
2023/04/03 13:19:16;;;;;;;4.30;0.68;;;;;;;;;;6094940;23;20044;-78
2023/04/03 13:21:41;;;;;;;2.38;0.73;;;;;;;;;;6094383;23;20479;-77
2023/04/03 13:24:08;;;;;;;2.95;0.70;;;;;;;;;;6144547;23;20024;-77
2023/04/03 13:26:34;;;;;;;1.83;0.60;;;;;;;;;;6092794;23;20010;-78
2023/04/03 13:29:03;;;;;;;2.75;0.70;;;;;;;;;;6118970;23;20363;-77
2023/04/03 13:31:34;;;;;;;1.63;0.63;;;;;;;;;;6116760;23;20021;-77
2023/04/03 13:34:06;;;;;;;2.50;0.90;;;;;;;;;;6094667;23;20024;-77
2023/04/03 13:36:40;;;;;;;1.13;0.40;;;;;;;;;;6117829;23;20021;-80
2023/04/03 13:39:27;;;;;;;1.67;0.70;;;;;;;;;;6119340;23;20351;-81
2023/04/03 13:42:01;;;;;;;;;;;;;;;;;;6142741;23;20017;-81
2023/04/03 13:44:36;;;;;;;2.95;1.00;;;;;;;;;;6168079;23;20608;-81
2023/04/03 13:47:10;;;;;;;1.75;0.60;;;;;;;;;;6118643;23;20431;-80
2023/04/03 13:49:44;;;;;;;2.30;0.80;;;;;;;;;;6116792;23;20124;-80
2023/04/03 13:52:23;;;;;;;3.42;0.57;;;;;;;;;;6117322;23;20017;-80
2023/04/03 13:54:56;;;;;;;1.70;0.55;;;;;;;;;;6118561;23;20076;-83
2023/04/03 13:57:23;;;;;;;2.17;0.60;;;;;;;;;;6079606;23;20021;-83
2023/04/03 13:59:49;;;;;;;2.35;0.63;;;;;;;;;;6117663;23;20662;-83
2023/04/03 14:02:29;;;;;;;2.47;0.70;;;;;;;;;;6140439;23;20025;-83
2023/04/03 14:04:59;;;;;;;1.63;0.60;;;;;;;;;;6093166;23;20025;-83
2023/04/03 14:07:26;;;;;;;1.90;0.63;;;;;;;;;;6093244;23;20022;-84
2023/04/03 14:09:52;;;;;;;1.77;0.60;;;;;;;;;;6093969;23;20441;-84
2023/04/03 14:12:26;;;;;;;1.50;0.40;;;;;;;;;;6143324;23;20650;-84
2023/04/03 14:14:52;;;;;;;2.97;0.70;;;;;;;;;;6093341;23;20080;-84
2023/04/03 14:17:20;;;;;;;2.00;0.65;;;;;;;;;;6092595;23;20021;-84
2023/04/03 14:19:46;;;;;;;1.75;0.60;;;;;;;;;;6094073;23;20020;-84
2023/04/03 14:22:24;;;;;;;1.80;0.60;;;;;;;;;;6118657;23;20554;-83
2023/04/03 14:24:51;;;;;;;2.75;0.55;;;;;;;;;;6094996;23;20024;-81
2023/04/03 14:27:24;;;;;;;2.58;0.60;;;;;;;;;;6094112;23;20729;-82
2023/04/03 14:29:51;;;;;;;2.05;0.60;;;;;;;;;;6120278;23;20083;-81
2023/04/03 14:32:18;;;;;;;1.95;0.60;;;;;;;;;;6118502;23;20096;-82
2023/04/03 14:34:44;;;;;;;1.88;0.60;;;;;;;;;;6120647;23;20024;-82
2023/04/03 14:37:16;;;;;;;2.85;0.55;;;;;;;;;;6120043;23;20347;-82
2023/04/03 14:39:42;;;;;;;2.13;0.50;;;;;;;;;;6096641;23;20448;-82
2023/04/03 14:42:13;;;;;;;1.45;0.57;;;;;;;;;;6146115;23;20325;-83
2023/04/03 14:44:38;;;;;;;1.33;0.60;;;;;;;;;;6147657;23;20120;-81
2023/04/03 14:47:04;;;;;;;2.08;0.70;;;;;;;;;;6146340;23;20033;-81
2023/04/03 14:49:30;;;;;;;2.00;0.57;;;;;;;;;;6145787;23;20022;-83
2023/04/03 14:51:58;;;;;;;1.67;0.50;;;;;;;;;;6120277;23;20072;-82
2023/04/03 14:54:28;;;;;;;3.10;0.60;;;;;;;;;;6119994;23;20479;-83
2023/04/03 14:56:55;;;;;;;5.82;0.80;;;;;;;;;;6146686;23;20024;-82